sensor_id;sensor_type;location;lat;lon;timestamp;P1;durP1;ratioP1;P2;durP2;ratioP2
11386;SDS011;5748;53.102;8.456;2023-08-17T00:00:52;0.57;;;0.57;;
11386;SDS011;5748;53.102;8.456;2023-08-17T00:03:18;0.70;;;0.70;;
11386;SDS011;5748;53.102;8.456;2023-08-17T00:05:46;1.27;;;0.97;;
11386;SDS011;5748;53.102;8.456;2023-08-17T00:08:13;0.70;;;0.70;;
11386;SDS011;5748;53.102;8.456;2023-08-17T00:10:40;0.60;;;0.60;;
11386;SDS011;5748;53.102;8.456;2023-08-17T00:13:08;0.60;;;0.60;;
11386;SDS011;5748;53.102;8.456;2023-08-17T00:15:36;0.70;;;0.63;;
11386;SDS011;5748;53.102;8.456;2023-08-17T00:18:04;0.77;;;0.70;;
11386;SDS011;5748;53.102;8.456;2023-08-17T00:20:30;1.10;;;0.67;;
11386;SDS011;5748;53.102;8.456;2023-08-17T00:22:58;0.57;;;0.57;;
11386;SDS011;5748;53.102;8.456;2023-08-17T00:25:25;0.60;;;0.60;;
11386;SDS011;5748;53.102;8.456;2023-08-17T00:27:51;0.70;;;0.60;;
11386;SDS011;5748;53.102;8.456;2023-08-17T00:30:20;0.70;;;0.70;;
11386;SDS011;5748;53.102;8.456;2023-08-17T00:32:47;0.70;;;0.60;;
11386;SDS011;5748;53.102;8.456;2023-08-17T00:35:14;0.70;;;0.60;;
11386;SDS011;5748;53.102;8.456;2023-08-17T00:37:41;1.10;;;0.77;;
11386;SDS011;5748;53.102;8.456;2023-08-17T00:40:08;0.80;;;0.80;;
11386;SDS011;5748;53.102;8.456;2023-08-17T00:42:36;0.70;;;0.70;;
11386;SDS011;5748;53.102;8.456;2023-08-17T00:45:03;0.60;;;0.60;;
11386;SDS011;5748;53.102;8.456;2023-08-17T00:47:33;0.67;;;0.67;;
11386;SDS011;5748;53.102;8.456;2023-08-17T00:50:00;0.70;;;0.70;;
11386;SDS011;5748;53.102;8.456;2023-08-17T00:52:28;0.70;;;0.70;;
11386;SDS011;5748;53.102;8.456;2023-08-17T00:54:56;0.90;;;0.80;;
11386;SDS011;5748;53.102;8.456;2023-08-17T00:57:24;0.80;;;0.80;;
11386;SDS011;5748;53.102;8.456;2023-08-17T00:59:51;1.33;;;0.70;;
11386;SDS011;5748;53.102;8.456;2023-08-17T01:02:18;0.90;;;0.80;;
11386;SDS011;5748;53.102;8.456;2023-08-17T01:04:47;1.20;;;0.80;;
11386;SDS011;5748;53.102;8.456;2023-08-17T01:07:13;0.60;;;0.60;;
11386;SDS011;5748;53.102;8.456;2023-08-17T01:09:40;0.70;;;0.70;;
11386;SDS011;5748;53.102;8.456;2023-08-17T01:12:08;0.83;;;0.80;;
11386;SDS011;5748;53.102;8.456;2023-08-17T01:14:50;1.00;;;0.80;;
11386;SDS011;5748;53.102;8.456;2023-08-17T01:17:26;1.13;;;0.93;;
11386;SDS011;5748;53.102;8.456;2023-08-17T01:20:01;0.70;;;0.70;;
11386;SDS011;5748;53.102;8.456;2023-08-17T01:22:30;0.70;;;0.70;;
11386;SDS011;5748;53.102;8.456;2023-08-17T01:25:02;0.70;;;0.70;;
11386;SDS011;5748;53.102;8.456;2023-08-17T01:27:34;0.80;;;0.80;;
11386;SDS011;5748;53.102;8.456;2023-08-17T01:30:06;0.80;;;0.80;;
11386;SDS011;5748;53.102;8.456;2023-08-17T01:32:37;0.70;;;0.70;;
11386;SDS011;5748;53.102;8.456;2023-08-17T01:35:09;0.87;;;0.80;;
11386;SDS011;5748;53.102;8.456;2023-08-17T01:37:43;1.00;;;0.80;;
11386;SDS011;5748;53.102;8.456;2023-08-17T01:40:12;0.90;;;0.90;;
11386;SDS011;5748;53.102;8.456;2023-08-17T01:42:41;0.70;;;0.70;;
11386;SDS011;5748;53.102;8.456;2023-08-17T01:45:09;1.33;;;0.80;;
11386;SDS011;5748;53.102;8.456;2023-08-17T01:47:37;0.93;;;0.83;;
11386;SDS011;5748;53.102;8.456;2023-08-17T01:50:04;0.90;;;0.90;;
11386;SDS011;5748;53.102;8.456;2023-08-17T01:52:32;1.00;;;0.87;;
11386;SDS011;5748;53.102;8.456;2023-08-17T01:54:59;0.67;;;0.60;;
11386;SDS011;5748;53.102;8.456;2023-08-17T01:57:27;0.80;;;0.80;;
11386;SDS011;5748;53.102;8.456;2023-08-17T01:59:54;0.70;;;0.70;;
11386;SDS011;5748;53.102;8.456;2023-08-17T02:02:21;0.77;;;0.77;;
11386;SDS011;5748;53.102;8.456;2023-08-17T02:04:48;0.80;;;0.80;;
11386;SDS011;5748;53.102;8.456;2023-08-17T02:07:15;1.07;;;0.87;;
11386;SDS011;5748;53.102;8.456;2023-08-17T02:09:42;0.80;;;0.80;;
11386;SDS011;5748;53.102;8.456;2023-08-17T02:12:08;0.70;;;0.70;;
11386;SDS011;5748;53.102;8.456;2023-08-17T02:14:37;0.90;;;0.90;;
11386;SDS011;5748;53.102;8.456;2023-08-17T02:17:04;1.07;;;0.97;;
11386;SDS011;5748;53.102;8.456;2023-08-17T02:19:31;0.90;;;0.90;;
11386;SDS011;5748;53.102;8.456;2023-08-17T02:21:58;0.83;;;0.83;;
11386;SDS011;5748;53.102;8.456;2023-08-17T02:24:25;0.73;;;0.70;;
11386;SDS011;5748;53.102;8.456;2023-08-17T02:26:52;2.30;;;1.00;;
11386;SDS011;5748;53.102;8.456;2023-08-17T02:29:19;0.83;;;0.80;;
11386;SDS011;5748;53.102;8.456;2023-08-17T02:31:47;1.00;;;0.80;;
11386;SDS011;5748;53.102;8.456;2023-08-17T02:34:14;0.70;;;0.70;;
11386;SDS011;5748;53.102;8.456;2023-08-17T02:36:41;1.00;;;0.90;;
11386;SDS011;5748;53.102;8.456;2023-08-17T02:39:08;0.77;;;0.77;;
11386;SDS011;5748;53.102;8.456;2023-08-17T02:41:35;0.70;;;0.70;;
11386;SDS011;5748;53.102;8.456;2023-08-17T02:44:02;0.93;;;0.90;;
11386;SDS011;5748;53.102;8.456;2023-08-17T02:46:29;0.77;;;0.77;;
11386;SDS011;5748;53.102;8.456;2023-08-17T02:48:57;0.87;;;0.87;;
11386;SDS011;5748;53.102;8.456;2023-08-17T02:51:24;0.87;;;0.73;;
11386;SDS011;5748;53.102;8.456;2023-08-17T02:53:51;0.90;;;0.90;;
11386;SDS011;5748;53.102;8.456;2023-08-17T02:56:18;1.80;;;1.00;;
11386;SDS011;5748;53.102;8.456;2023-08-17T02:58:45;0.73;;;0.70;;
11386;SDS011;5748;53.102;8.456;2023-08-17T03:01:12;0.83;;;0.83;;
11386;SDS011;5748;53.102;8.456;2023-08-17T03:03:38;1.00;;;0.80;;
11386;SDS011;5748;53.102;8.456;2023-08-17T03:06:07;1.33;;;0.80;;
11386;SDS011;5748;53.102;8.456;2023-08-17T03:08:34;1.00;;;0.90;;
11386;SDS011;5748;53.102;8.456;2023-08-17T03:11:01;0.93;;;0.80;;
11386;SDS011;5748;53.102;8.456;2023-08-17T03:13:28;0.83;;;0.83;;
11386;SDS011;5748;53.102;8.456;2023-08-17T03:15:55;0.90;;;0.80;;
11386;SDS011;5748;53.102;8.456;2023-08-17T03:18:21;1.13;;;0.87;;
11386;SDS011;5748;53.102;8.456;2023-08-17T03:20:48;2.20;;;0.80;;
11386;SDS011;5748;53.102;8.456;2023-08-17T03:23:17;1.57;;;1.10;;
11386;SDS011;5748;53.102;8.456;2023-08-17T03:25:43;0.80;;;0.80;;
11386;SDS011;5748;53.102;8.456;2023-08-17T03:28:11;0.63;;;0.63;;
11386;SDS011;5748;53.102;8.456;2023-08-17T03:30:38;0.73;;;0.70;;
11386;SDS011;5748;53.102;8.456;2023-08-17T03:33:05;0.60;;;0.60;;
11386;SDS011;5748;53.102;8.456;2023-08-17T03:35:33;1.30;;;1.00;;
11386;SDS011;5748;53.102;8.456;2023-08-17T03:38:00;1.07;;;0.80;;
11386;SDS011;5748;53.102;8.456;2023-08-17T03:40:28;1.17;;;0.80;;
11386;SDS011;5748;53.102;8.456;2023-08-17T03:42:55;0.63;;;0.60;;
11386;SDS011;5748;53.102;8.456;2023-08-17T03:45:21;0.73;;;0.73;;
11386;SDS011;5748;53.102;8.456;2023-08-17T03:47:48;0.70;;;0.67;;
11386;SDS011;5748;53.102;8.456;2023-08-17T03:50:16;0.70;;;0.70;;
11386;SDS011;5748;53.102;8.456;2023-08-17T03:52:43;0.80;;;0.80;;
11386;SDS011;5748;53.102;8.456;2023-08-17T03:55:09;0.93;;;0.80;;
11386;SDS011;5748;53.102;8.456;2023-08-17T03:57:38;0.70;;;0.70;;
11386;SDS011;5748;53.102;8.456;2023-08-17T04:00:05;0.80;;;0.70;;
11386;SDS011;5748;53.102;8.456;2023-08-17T04:02:35;0.93;;;0.60;;
11386;SDS011;5748;53.102;8.456;2023-08-17T04:05:02;1.97;;;0.97;;
11386;SDS011;5748;53.102;8.456;2023-08-17T04:07:29;0.80;;;0.80;;
11386;SDS011;5748;53.102;8.456;2023-08-17T04:09:56;1.57;;;0.60;;
11386;SDS011;5748;53.102;8.456;2023-08-17T04:12:23;0.70;;;0.70;;
11386;SDS011;5748;53.102;8.456;2023-08-17T04:14:52;0.80;;;0.80;;
11386;SDS011;5748;53.102;8.456;2023-08-17T04:17:20;0.60;;;0.60;;
11386;SDS011;5748;53.102;8.456;2023-08-17T04:19:48;2.37;;;1.10;;
11386;SDS011;5748;53.102;8.456;2023-08-17T04:22:16;1.30;;;1.00;;
11386;SDS011;5748;53.102;8.456;2023-08-17T04:24:43;1.10;;;0.80;;
11386;SDS011;5748;53.102;8.456;2023-08-17T04:27:11;0.93;;;0.80;;
11386;SDS011;5748;53.102;8.456;2023-08-17T04:29:38;0.70;;;0.70;;
11386;SDS011;5748;53.102;8.456;2023-08-17T04:32:07;0.90;;;0.90;;
11386;SDS011;5748;53.102;8.456;2023-08-17T04:34:34;0.83;;;0.70;;
11386;SDS011;5748;53.102;8.456;2023-08-17T04:37:01;0.80;;;0.80;;
11386;SDS011;5748;53.102;8.456;2023-08-17T04:39:28;0.97;;;0.87;;
11386;SDS011;5748;53.102;8.456;2023-08-17T04:41:55;0.80;;;0.80;;
11386;SDS011;5748;53.102;8.456;2023-08-17T04:44:21;1.10;;;0.70;;
11386;SDS011;5748;53.102;8.456;2023-08-17T04:46:49;0.70;;;0.70;;
11386;SDS011;5748;53.102;8.456;2023-08-17T04:49:17;0.70;;;0.70;;
11386;SDS011;5748;53.102;8.456;2023-08-17T04:51:44;0.97;;;0.90;;
11386;SDS011;5748;53.102;8.456;2023-08-17T04:54:11;0.90;;;0.90;;
11386;SDS011;5748;53.102;8.456;2023-08-17T04:56:38;1.10;;;1.00;;
11386;SDS011;5748;53.102;8.456;2023-08-17T04:59:04;1.10;;;0.73;;
11386;SDS011;5748;53.102;8.456;2023-08-17T05:01:31;0.90;;;0.73;;
11386;SDS011;5748;53.102;8.456;2023-08-17T05:03:58;0.83;;;0.83;;
11386;SDS011;5748;53.102;8.456;2023-08-17T05:06:28;0.90;;;0.80;;
11386;SDS011;5748;53.102;8.456;2023-08-17T05:08:56;0.87;;;0.87;;
11386;SDS011;5748;53.102;8.456;2023-08-17T05:11:23;0.90;;;0.80;;
11386;SDS011;5748;53.102;8.456;2023-08-17T05:13:50;0.70;;;0.70;;
11386;SDS011;5748;53.102;8.456;2023-08-17T05:16:17;0.80;;;0.70;;
11386;SDS011;5748;53.102;8.456;2023-08-17T05:18:44;0.80;;;0.80;;
11386;SDS011;5748;53.102;8.456;2023-08-17T05:21:11;1.27;;;0.90;;
11386;SDS011;5748;53.102;8.456;2023-08-17T05:23:39;1.17;;;0.80;;
11386;SDS011;5748;53.102;8.456;2023-08-17T05:26:06;0.93;;;0.80;;
11386;SDS011;5748;53.102;8.456;2023-08-17T05:28:33;0.80;;;0.80;;
11386;SDS011;5748;53.102;8.456;2023-08-17T05:31:02;0.80;;;0.80;;
11386;SDS011;5748;53.102;8.456;2023-08-17T05:33:31;0.60;;;0.60;;
11386;SDS011;5748;53.102;8.456;2023-08-17T05:35:58;1.63;;;0.70;;
11386;SDS011;5748;53.102;8.456;2023-08-17T05:38:25;0.83;;;0.80;;
11386;SDS011;5748;53.102;8.456;2023-08-17T05:40:55;1.07;;;0.80;;
11386;SDS011;5748;53.102;8.456;2023-08-17T05:43:22;0.80;;;0.80;;
11386;SDS011;5748;53.102;8.456;2023-08-17T05:45:49;1.13;;;0.90;;
11386;SDS011;5748;53.102;8.456;2023-08-17T05:48:18;1.10;;;0.80;;
11386;SDS011;5748;53.102;8.456;2023-08-17T05:50:45;0.83;;;0.83;;
11386;SDS011;5748;53.102;8.456;2023-08-17T05:53:12;0.80;;;0.80;;
11386;SDS011;5748;53.102;8.456;2023-08-17T05:55:39;0.70;;;0.70;;
11386;SDS011;5748;53.102;8.456;2023-08-17T05:58:07;0.70;;;0.70;;
11386;SDS011;5748;53.102;8.456;2023-08-17T06:00:34;0.70;;;0.70;;
11386;SDS011;5748;53.102;8.456;2023-08-17T06:03:02;0.60;;;0.60;;
11386;SDS011;5748;53.102;8.456;2023-08-17T06:05:30;0.80;;;0.80;;
11386;SDS011;5748;53.102;8.456;2023-08-17T06:07:57;0.80;;;0.80;;
11386;SDS011;5748;53.102;8.456;2023-08-17T06:10:24;1.33;;;0.80;;
11386;SDS011;5748;53.102;8.456;2023-08-17T06:12:52;1.00;;;0.70;;
11386;SDS011;5748;53.102;8.456;2023-08-17T06:15:20;0.83;;;0.83;;
11386;SDS011;5748;53.102;8.456;2023-08-17T06:17:47;0.90;;;0.70;;
11386;SDS011;5748;53.102;8.456;2023-08-17T06:20:15;0.67;;;0.67;;
11386;SDS011;5748;53.102;8.456;2023-08-17T06:22:43;1.07;;;0.80;;
11386;SDS011;5748;53.102;8.456;2023-08-17T06:25:10;0.60;;;0.60;;
11386;SDS011;5748;53.102;8.456;2023-08-17T06:27:37;0.70;;;0.60;;
11386;SDS011;5748;53.102;8.456;2023-08-17T06:30:04;1.13;;;0.80;;
11386;SDS011;5748;53.102;8.456;2023-08-17T06:32:34;0.80;;;0.80;;
11386;SDS011;5748;53.102;8.456;2023-08-17T06:35:01;0.77;;;0.77;;
11386;SDS011;5748;53.102;8.456;2023-08-17T06:37:28;0.80;;;0.80;;
11386;SDS011;5748;53.102;8.456;2023-08-17T06:39:55;1.37;;;0.80;;
11386;SDS011;5748;53.102;8.456;2023-08-17T06:42:21;0.60;;;0.60;;
11386;SDS011;5748;53.102;8.456;2023-08-17T06:44:48;1.10;;;0.90;;
11386;SDS011;5748;53.102;8.456;2023-08-17T06:47:15;1.03;;;0.90;;
11386;SDS011;5748;53.102;8.456;2023-08-17T06:49:43;0.63;;;0.63;;
11386;SDS011;5748;53.102;8.456;2023-08-17T06:52:10;0.80;;;0.80;;
11386;SDS011;5748;53.102;8.456;2023-08-17T06:54:37;1.10;;;0.83;;
11386;SDS011;5748;53.102;8.456;2023-08-17T06:57:05;0.80;;;0.80;;
11386;SDS011;5748;53.102;8.456;2023-08-17T06:59:31;0.67;;;0.67;;
11386;SDS011;5748;53.102;8.456;2023-08-17T07:01:59;0.70;;;0.70;;
11386;SDS011;5748;53.102;8.456;2023-08-17T07:04:26;0.70;;;0.70;;
11386;SDS011;5748;53.102;8.456;2023-08-17T07:06:54;0.60;;;0.60;;
11386;SDS011;5748;53.102;8.456;2023-08-17T07:09:21;1.07;;;0.73;;
11386;SDS011;5748;53.102;8.456;2023-08-17T07:11:48;0.80;;;0.80;;
11386;SDS011;5748;53.102;8.456;2023-08-17T07:14:15;1.10;;;0.80;;
11386;SDS011;5748;53.102;8.456;2023-08-17T07:16:41;0.80;;;0.80;;
11386;SDS011;5748;53.102;8.456;2023-08-17T07:19:08;1.00;;;0.90;;
11386;SDS011;5748;53.102;8.456;2023-08-17T07:21:36;1.03;;;0.83;;
11386;SDS011;5748;53.102;8.456;2023-08-17T07:24:12;0.87;;;0.87;;
11386;SDS011;5748;53.102;8.456;2023-08-17T07:26:41;0.80;;;0.80;;
11386;SDS011;5748;53.102;8.456;2023-08-17T07:29:09;0.90;;;0.90;;
11386;SDS011;5748;53.102;8.456;2023-08-17T07:31:36;1.03;;;0.93;;
11386;SDS011;5748;53.102;8.456;2023-08-17T07:34:03;1.97;;;0.90;;
11386;SDS011;5748;53.102;8.456;2023-08-17T07:36:30;1.00;;;1.00;;
11386;SDS011;5748;53.102;8.456;2023-08-17T07:38:58;0.83;;;0.80;;
11386;SDS011;5748;53.102;8.456;2023-08-17T07:41:26;0.80;;;0.80;;
11386;SDS011;5748;53.102;8.456;2023-08-17T07:43:53;0.83;;;0.83;;
11386;SDS011;5748;53.102;8.456;2023-08-17T07:46:20;1.13;;;0.90;;
11386;SDS011;5748;53.102;8.456;2023-08-17T07:48:47;0.80;;;0.80;;
11386;SDS011;5748;53.102;8.456;2023-08-17T07:51:14;0.93;;;0.83;;
11386;SDS011;5748;53.102;8.456;2023-08-17T07:53:41;0.80;;;0.80;;
11386;SDS011;5748;53.102;8.456;2023-08-17T07:56:08;0.80;;;0.80;;
11386;SDS011;5748;53.102;8.456;2023-08-17T07:58:36;1.00;;;0.90;;
11386;SDS011;5748;53.102;8.456;2023-08-17T08:01:03;0.87;;;0.80;;
11386;SDS011;5748;53.102;8.456;2023-08-17T08:03:30;0.83;;;0.83;;
11386;SDS011;5748;53.102;8.456;2023-08-17T08:05:57;1.00;;;0.90;;
11386;SDS011;5748;53.102;8.456;2023-08-17T08:08:24;0.70;;;0.70;;
11386;SDS011;5748;53.102;8.456;2023-08-17T08:10:52;1.43;;;0.90;;
11386;SDS011;5748;53.102;8.456;2023-08-17T08:13:20;1.10;;;1.00;;
11386;SDS011;5748;53.102;8.456;2023-08-17T08:15:48;1.23;;;1.00;;
11386;SDS011;5748;53.102;8.456;2023-08-17T08:18:15;0.90;;;0.90;;
11386;SDS011;5748;53.102;8.456;2023-08-17T08:20:42;1.20;;;1.10;;
11386;SDS011;5748;53.102;8.456;2023-08-17T08:23:09;0.87;;;0.87;;
11386;SDS011;5748;53.102;8.456;2023-08-17T08:25:36;1.37;;;1.00;;
11386;SDS011;5748;53.102;8.456;2023-08-17T08:28:03;1.60;;;1.20;;
11386;SDS011;5748;53.102;8.456;2023-08-17T08:30:30;0.90;;;0.87;;
11386;SDS011;5748;53.102;8.456;2023-08-17T08:32:59;0.80;;;0.80;;
11386;SDS011;5748;53.102;8.456;2023-08-17T08:35:26;0.83;;;0.80;;
11386;SDS011;5748;53.102;8.456;2023-08-17T08:37:55;1.00;;;0.80;;
11386;SDS011;5748;53.102;8.456;2023-08-17T08:40:26;1.13;;;0.98;;
11386;SDS011;5748;53.102;8.456;2023-08-17T08:42:55;1.00;;;1.00;;
11386;SDS011;5748;53.102;8.456;2023-08-17T08:45:23;1.10;;;1.00;;
11386;SDS011;5748;53.102;8.456;2023-08-17T08:47:51;0.90;;;0.90;;
11386;SDS011;5748;53.102;8.456;2023-08-17T08:50:20;0.90;;;0.90;;
11386;SDS011;5748;53.102;8.456;2023-08-17T08:52:50;0.97;;;0.80;;
11386;SDS011;5748;53.102;8.456;2023-08-17T08:55:25;0.87;;;0.87;;
11386;SDS011;5748;53.102;8.456;2023-08-17T08:57:56;0.90;;;0.90;;
11386;SDS011;5748;53.102;8.456;2023-08-17T09:00:24;0.90;;;0.90;;
11386;SDS011;5748;53.102;8.456;2023-08-17T09:02:52;0.90;;;0.90;;
11386;SDS011;5748;53.102;8.456;2023-08-17T09:05:21;1.07;;;0.80;;
11386;SDS011;5748;53.102;8.456;2023-08-17T09:07:48;0.85;;;0.85;;
11386;SDS011;5748;53.102;8.456;2023-08-17T09:10:15;0.90;;;0.90;;
11386;SDS011;5748;53.102;8.456;2023-08-17T09:12:43;0.90;;;0.88;;
11386;SDS011;5748;53.102;8.456;2023-08-17T09:15:12;1.10;;;1.00;;
11386;SDS011;5748;53.102;8.456;2023-08-17T09:17:39;0.80;;;0.80;;
11386;SDS011;5748;53.102;8.456;2023-08-17T09:20:06;1.35;;;0.88;;
11386;SDS011;5748;53.102;8.456;2023-08-17T09:22:38;1.88;;;1.00;;
11386;SDS011;5748;53.102;8.456;2023-08-17T09:25:07;1.00;;;1.00;;
11386;SDS011;5748;53.102;8.456;2023-08-17T09:27:35;0.80;;;0.80;;
11386;SDS011;5748;53.102;8.456;2023-08-17T09:30:03;1.05;;;0.90;;
11386;SDS011;5748;53.102;8.456;2023-08-17T09:32:33;1.52;;;1.13;;
11386;SDS011;5748;53.102;8.456;2023-08-17T09:35:00;1.10;;;1.10;;
11386;SDS011;5748;53.102;8.456;2023-08-17T09:37:29;1.20;;;1.10;;
11386;SDS011;5748;53.102;8.456;2023-08-17T09:39:57;1.15;;;1.00;;
11386;SDS011;5748;53.102;8.456;2023-08-17T09:42:24;0.90;;;0.80;;
11386;SDS011;5748;53.102;8.456;2023-08-17T09:44:52;1.55;;;0.90;;
11386;SDS011;5748;53.102;8.456;2023-08-17T09:47:20;0.80;;;0.80;;
11386;SDS011;5748;53.102;8.456;2023-08-17T09:49:49;0.95;;;0.95;;
11386;SDS011;5748;53.102;8.456;2023-08-17T09:52:16;1.35;;;1.00;;
11386;SDS011;5748;53.102;8.456;2023-08-17T09:54:45;0.80;;;0.80;;
11386;SDS011;5748;53.102;8.456;2023-08-17T09:57:14;1.02;;;0.90;;
11386;SDS011;5748;53.102;8.456;2023-08-17T09:59:42;0.80;;;0.80;;
11386;SDS011;5748;53.102;8.456;2023-08-17T10:02:11;0.90;;;0.90;;
11386;SDS011;5748;53.102;8.456;2023-08-17T10:04:45;0.60;;;0.60;;
11386;SDS011;5748;53.102;8.456;2023-08-17T10:07:16;0.75;;;0.75;;
11386;SDS011;5748;53.102;8.456;2023-08-17T10:09:47;0.80;;;0.70;;
11386;SDS011;5748;53.102;8.456;2023-08-17T10:12:22;0.52;;;0.52;;
11386;SDS011;5748;53.102;8.456;2023-08-17T10:14:55;0.60;;;0.60;;
11386;SDS011;5748;53.102;8.456;2023-08-17T10:17:26;0.80;;;0.80;;
11386;SDS011;5748;53.102;8.456;2023-08-17T10:19:54;1.20;;;0.80;;
11386;SDS011;5748;53.102;8.456;2023-08-17T10:22:26;0.77;;;0.77;;
11386;SDS011;5748;53.102;8.456;2023-08-17T10:24:57;0.98;;;0.80;;
11386;SDS011;5748;53.102;8.456;2023-08-17T10:27:27;0.73;;;0.73;;
11386;SDS011;5748;53.102;8.456;2023-08-17T10:29:55;0.80;;;0.80;;
11386;SDS011;5748;53.102;8.456;2023-08-17T10:32:24;0.60;;;0.60;;
11386;SDS011;5748;53.102;8.456;2023-08-17T10:34:52;0.85;;;0.73;;
11386;SDS011;5748;53.102;8.456;2023-08-17T10:37:20;0.80;;;0.80;;
11386;SDS011;5748;53.102;8.456;2023-08-17T10:39:49;0.75;;;0.75;;
11386;SDS011;5748;53.102;8.456;2023-08-17T10:42:30;0.60;;;0.60;;
11386;SDS011;5748;53.102;8.456;2023-08-17T10:44:58;0.73;;;0.70;;
11386;SDS011;5748;53.102;8.456;2023-08-17T10:47:27;0.88;;;0.80;;
11386;SDS011;5748;53.102;8.456;2023-08-17T10:49:57;0.60;;;0.60;;
11386;SDS011;5748;53.102;8.456;2023-08-17T10:52:27;0.70;;;0.70;;
11386;SDS011;5748;53.102;8.456;2023-08-17T10:54:58;1.10;;;1.00;;
11386;SDS011;5748;53.102;8.456;2023-08-17T10:57:33;0.70;;;0.70;;
11386;SDS011;5748;53.102;8.456;2023-08-17T11:00:15;0.70;;;0.70;;
11386;SDS011;5748;53.102;8.456;2023-08-17T11:02:52;0.98;;;0.80;;
11386;SDS011;5748;53.102;8.456;2023-08-17T11:08:21;0.70;;;0.70;;
11386;SDS011;5748;53.102;8.456;2023-08-17T11:10:57;0.75;;;0.75;;
11386;SDS011;5748;53.102;8.456;2023-08-17T11:13:28;0.70;;;0.70;;
11386;SDS011;5748;53.102;8.456;2023-08-17T11:15:57;0.70;;;0.70;;
11386;SDS011;5748;53.102;8.456;2023-08-17T11:18:25;0.82;;;0.80;;
11386;SDS011;5748;53.102;8.456;2023-08-17T11:20:52;0.80;;;0.80;;
11386;SDS011;5748;53.102;8.456;2023-08-17T11:23:20;1.05;;;0.90;;
11386;SDS011;5748;53.102;8.456;2023-08-17T11:25:49;0.75;;;0.75;;
11386;SDS011;5748;53.102;8.456;2023-08-17T11:28:18;0.70;;;0.70;;
11386;SDS011;5748;53.102;8.456;2023-08-17T11:30:52;0.95;;;0.95;;
11386;SDS011;5748;53.102;8.456;2023-08-17T11:33:23;0.90;;;0.90;;
11386;SDS011;5748;53.102;8.456;2023-08-17T11:35:51;0.90;;;0.90;;
11386;SDS011;5748;53.102;8.456;2023-08-17T11:38:20;0.80;;;0.80;;
11386;SDS011;5748;53.102;8.456;2023-08-17T11:40:47;0.60;;;0.60;;
11386;SDS011;5748;53.102;8.456;2023-08-17T11:43:15;1.05;;;0.95;;
11386;SDS011;5748;53.102;8.456;2023-08-17T11:45:42;0.80;;;0.80;;
11386;SDS011;5748;53.102;8.456;2023-08-17T11:48:10;0.82;;;0.82;;
11386;SDS011;5748;53.102;8.456;2023-08-17T11:50:37;0.80;;;0.80;;
11386;SDS011;5748;53.102;8.456;2023-08-17T11:53:05;1.02;;;0.90;;
11386;SDS011;5748;53.102;8.456;2023-08-17T11:55:32;1.13;;;0.90;;
11386;SDS011;5748;53.102;8.456;2023-08-17T11:57:59;0.70;;;0.70;;
11386;SDS011;5748;53.102;8.456;2023-08-17T12:00:28;1.65;;;0.90;;
11386;SDS011;5748;53.102;8.456;2023-08-17T12:03:01;0.80;;;0.80;;
11386;SDS011;5748;53.102;8.456;2023-08-17T12:05:30;0.75;;;0.75;;
11386;SDS011;5748;53.102;8.456;2023-08-17T12:07:58;0.70;;;0.70;;
11386;SDS011;5748;53.102;8.456;2023-08-17T12:10:27;0.73;;;0.73;;
11386;SDS011;5748;53.102;8.456;2023-08-17T12:12:56;0.70;;;0.70;;
11386;SDS011;5748;53.102;8.456;2023-08-17T12:15:24;0.80;;;0.80;;
11386;SDS011;5748;53.102;8.456;2023-08-17T12:17:58;0.70;;;0.70;;
11386;SDS011;5748;53.102;8.456;2023-08-17T12:20:26;0.70;;;0.70;;
11386;SDS011;5748;53.102;8.456;2023-08-17T12:22:54;1.00;;;0.90;;
11386;SDS011;5748;53.102;8.456;2023-08-17T12:25:23;0.80;;;0.80;;
11386;SDS011;5748;53.102;8.456;2023-08-17T12:27:51;0.80;;;0.80;;
11386;SDS011;5748;53.102;8.456;2023-08-17T12:30:25;0.70;;;0.70;;
11386;SDS011;5748;53.102;8.456;2023-08-17T12:32:54;0.70;;;0.70;;
11386;SDS011;5748;53.102;8.456;2023-08-17T12:35:21;0.82;;;0.80;;
11386;SDS011;5748;53.102;8.456;2023-08-17T12:37:49;0.60;;;0.60;;
11386;SDS011;5748;53.102;8.456;2023-08-17T12:40:18;0.88;;;0.80;;
11386;SDS011;5748;53.102;8.456;2023-08-17T12:42:46;0.70;;;0.70;;
11386;SDS011;5748;53.102;8.456;2023-08-17T12:45:13;0.70;;;0.70;;
11386;SDS011;5748;53.102;8.456;2023-08-17T12:47:40;0.70;;;0.70;;
11386;SDS011;5748;53.102;8.456;2023-08-17T12:50:08;0.82;;;0.82;;
11386;SDS011;5748;53.102;8.456;2023-08-17T12:52:35;0.80;;;0.80;;
11386;SDS011;5748;53.102;8.456;2023-08-17T12:55:02;0.90;;;0.90;;
11386;SDS011;5748;53.102;8.456;2023-08-17T12:57:31;1.02;;;0.90;;
11386;SDS011;5748;53.102;8.456;2023-08-17T12:59:58;0.80;;;0.80;;
11386;SDS011;5748;53.102;8.456;2023-08-17T13:02:25;0.82;;;0.82;;
11386;SDS011;5748;53.102;8.456;2023-08-17T13:04:52;0.80;;;0.80;;
11386;SDS011;5748;53.102;8.456;2023-08-17T13:07:18;0.90;;;0.90;;
11386;SDS011;5748;53.102;8.456;2023-08-17T13:09:45;1.63;;;0.98;;
11386;SDS011;5748;53.102;8.456;2023-08-17T13:12:12;0.90;;;0.90;;
11386;SDS011;5748;53.102;8.456;2023-08-17T13:14:40;1.00;;;1.00;;
11386;SDS011;5748;53.102;8.456;2023-08-17T13:17:07;0.98;;;0.98;;
11386;SDS011;5748;53.102;8.456;2023-08-17T13:19:34;1.20;;;1.10;;
11386;SDS011;5748;53.102;8.456;2023-08-17T13:22:01;1.35;;;1.25;;
11386;SDS011;5748;53.102;8.456;2023-08-17T13:24:29;1.73;;;1.40;;
11386;SDS011;5748;53.102;8.456;2023-08-17T13:26:56;1.23;;;1.23;;
11386;SDS011;5748;53.102;8.456;2023-08-17T13:29:23;1.70;;;1.60;;
11386;SDS011;5748;53.102;8.456;2023-08-17T13:31:51;1.52;;;1.38;;
11386;SDS011;5748;53.102;8.456;2023-08-17T13:34:18;1.42;;;1.35;;
11386;SDS011;5748;53.102;8.456;2023-08-17T13:36:45;1.42;;;1.33;;
11386;SDS011;5748;53.102;8.456;2023-08-17T13:39:12;1.25;;;1.23;;
11386;SDS011;5748;53.102;8.456;2023-08-17T13:41:39;1.48;;;1.38;;
11386;SDS011;5748;53.102;8.456;2023-08-17T13:44:07;1.80;;;1.70;;
11386;SDS011;5748;53.102;8.456;2023-08-17T13:46:34;1.70;;;1.60;;
11386;SDS011;5748;53.102;8.456;2023-08-17T13:49:03;1.60;;;1.50;;
11386;SDS011;5748;53.102;8.456;2023-08-17T13:51:30;1.77;;;1.67;;
11386;SDS011;5748;53.102;8.456;2023-08-17T13:53:57;2.00;;;1.90;;
11386;SDS011;5748;53.102;8.456;2023-08-17T13:56:24;2.60;;;2.40;;
11386;SDS011;5748;53.102;8.456;2023-08-17T13:58:51;2.22;;;2.13;;
11386;SDS011;5748;53.102;8.456;2023-08-17T14:01:17;2.65;;;2.47;;
11386;SDS011;5748;53.102;8.456;2023-08-17T14:03:44;2.95;;;2.75;;
11386;SDS011;5748;53.102;8.456;2023-08-17T14:06:13;2.40;;;2.20;;
11386;SDS011;5748;53.102;8.456;2023-08-17T14:08:40;1.90;;;1.80;;
11386;SDS011;5748;53.102;8.456;2023-08-17T14:11:07;1.42;;;1.33;;
11386;SDS011;5748;53.102;8.456;2023-08-17T14:13:34;1.35;;;1.23;;
11386;SDS011;5748;53.102;8.456;2023-08-17T14:16:01;1.58;;;1.25;;
11386;SDS011;5748;53.102;8.456;2023-08-17T14:18:29;1.05;;;1.00;;
11386;SDS011;5748;53.102;8.456;2023-08-17T14:20:55;0.70;;;0.70;;
11386;SDS011;5748;53.102;8.456;2023-08-17T14:23:24;1.42;;;0.88;;
11386;SDS011;5748;53.102;8.456;2023-08-17T14:25:51;0.70;;;0.70;;
11386;SDS011;5748;53.102;8.456;2023-08-17T14:28:18;0.90;;;0.80;;
11386;SDS011;5748;53.102;8.456;2023-08-17T14:30:45;0.65;;;0.65;;
11386;SDS011;5748;53.102;8.456;2023-08-17T14:33:12;0.70;;;0.70;;
11386;SDS011;5748;53.102;8.456;2023-08-17T14:35:40;0.60;;;0.60;;
11386;SDS011;5748;53.102;8.456;2023-08-17T14:38:07;0.65;;;0.60;;
11386;SDS011;5748;53.102;8.456;2023-08-17T14:40:41;1.45;;;0.70;;
11386;SDS011;5748;53.102;8.456;2023-08-17T14:43:09;0.60;;;0.60;;
11386;SDS011;5748;53.102;8.456;2023-08-17T14:45:38;0.75;;;0.68;;
11386;SDS011;5748;53.102;8.456;2023-08-17T14:48:05;0.52;;;0.52;;
11386;SDS011;5748;53.102;8.456;2023-08-17T14:50:33;0.60;;;0.60;;
11386;SDS011;5748;53.102;8.456;2023-08-17T14:53:00;0.50;;;0.50;;
11386;SDS011;5748;53.102;8.456;2023-08-17T14:55:28;0.52;;;0.52;;
11386;SDS011;5748;53.102;8.456;2023-08-17T14:57:57;0.63;;;0.60;;
11386;SDS011;5748;53.102;8.456;2023-08-17T15:00:24;0.50;;;0.50;;
11386;SDS011;5748;53.102;8.456;2023-08-17T15:02:55;0.60;;;0.60;;
11386;SDS011;5748;53.102;8.456;2023-08-17T15:05:23;0.50;;;0.50;;
11386;SDS011;5748;53.102;8.456;2023-08-17T15:07:50;0.57;;;0.57;;